Pagrindinis puslapis
METAR-TAF:

METAR-TAF

Oro uostai :

Chinandega, Nikaragva

platuma: 12-38N, ilguma: 087-08W, Aukštis: 53 m

Dabartinis oras

Ataskaita buvo paskelbta 4 valandos ir 3 minutes, ne 23:00 UTC
Vėjas 6 kt iš Rytų
Temperatūra 32°C
Drėgmė 46%
Slėgis 1008 hPa
Matomumas 10 km arba daugiau
Išsisklaidę debesys ne aukštis 2500 ft
Išsisklaidę debesys ne aukštis 9000 ft

METAR: MNCH 172300Z 08006KT 9999 SCT025 SCT090 32/19 Q1008

Laikas: 21:03 (03:03 UTC)


TAF: trūkstamas

Orai ataskaitas ir orų prognozės (METAR, TAF).

turimą stotys yra geltonos ir raudonos taškus žemėlapyje.

Perkelti pele per norėdami pamatyti stoties vardą.

Tada spustelėkite, norėdami matyti oro stebėjimo ir prognozės.

Norėdami pakeisti žemėlapį: spustelėkite ant žalios mygtukų su juodo kryžiaus žemyn,; žalią mygtuką su brūkšneliu, jei norite nutolinti; arba žalių rodyklių gretimoms žemėlapius.


METAR-TAF: